Time;durP1;ratioP1;P1;durP2;ratioP2;P2;SDS_P1;SDS_P2;PMS_P1;PMS_P2;Temp;Humidity;BMP_temperature;BMP_pressure;BME280_temperature;BME280_humidity;BME280_pressure;Samples;Min_cycle;Max_cycle;Signal;HPM_P1;HPM_P2
2021/12/31 00:02:25;;;;;;;1999.90;999.90;;;3.90;99.90;;;;;;5055969;28;20104;-78
2021/12/31 00:04:51;;;;;;;1999.90;999.90;;;3.90;99.90;;;;;;5055828;28;20032;-78
2021/12/31 00:07:17;;;;;;;1999.90;999.90;;;3.90;99.90;;;;;;5056031;28;20028;-79
2021/12/31 00:09:43;;;;;;;1999.90;999.90;;;3.90;99.90;;;;;;5037839;28;20025;-79
2021/12/31 00:12:09;;;;;;;1999.90;999.90;;;3.90;99.90;;;;;;5037627;28;20029;-78
2021/12/31 00:14:36;;;;;;;1999.90;999.90;;;3.80;99.90;;;;;;5055626;28;20373;-78
2021/12/31 00:17:03;;;;;;;1999.90;999.90;;;3.70;99.90;;;;;;5055634;28;20025;-77
2021/12/31 00:19:32;;;;;;;1999.90;999.90;;;3.60;99.90;;;;;;5055561;28;20071;-80
2021/12/31 00:22:08;;;;;;;1999.90;999.90;;;3.60;99.90;;;;;;5055647;28;20021;-81
2021/12/31 00:24:33;;;;;;;1999.90;999.90;;;3.50;99.90;;;;;;5055453;28;20049;-79
2021/12/31 00:26:59;;;;;;;1999.90;999.90;;;3.60;99.90;;;;;;5037903;28;20078;-79
2021/12/31 00:29:25;;;;;;;1999.90;999.90;;;3.40;99.90;;;;;;5056005;28;20104;-79
2021/12/31 00:31:50;;;;;;;1999.90;999.90;;;3.40;99.90;;;;;;5055715;28;20395;-80
2021/12/31 00:34:16;;;;;;;1999.90;999.90;;;3.40;99.90;;;;;;5055778;28;20356;-81
2021/12/31 00:36:47;;;;;;;1999.90;999.90;;;3.40;99.90;;;;;;5037783;28;20536;-79
2021/12/31 00:39:15;;;;;;;1999.90;999.90;;;3.40;99.90;;;;;;5037959;28;20037;-82
2021/12/31 00:41:42;;;;;;;1999.90;999.90;;;3.40;99.90;;;;;;5055924;28;20039;-81
2021/12/31 00:44:09;;;;;;;1999.90;999.90;;;3.50;99.90;;;;;;5037932;28;20087;-80
2021/12/31 00:46:34;;;;;;;1999.90;999.90;;;3.50;99.90;;;;;;5055657;28;20519;-77
2021/12/31 00:49:03;;;;;;;1999.90;999.90;;;3.40;99.90;;;;;;5056102;28;20025;-79
2021/12/31 00:51:30;;;;;;;1999.90;999.90;;;3.40;99.90;;;;;;5037485;28;20033;-82
2021/12/31 00:53:56;;;;;;;1999.90;999.90;;;3.40;99.90;;;;;;5055468;28;20534;-82
2021/12/31 00:56:22;;;;;;;1999.90;999.90;;;3.50;99.90;;;;;;5055487;28;20025;-80
2021/12/31 00:58:48;;;;;;;1999.90;999.90;;;3.30;99.90;;;;;;5055279;28;20048;-81
2021/12/31 01:01:19;;;;;;;1999.90;999.90;;;3.30;99.90;;;;;;5055312;28;20388;-81
2021/12/31 01:03:45;;;;;;;1999.90;999.90;;;3.30;99.90;;;;;;5037735;28;20021;-78
2021/12/31 01:06:10;;;;;;;1999.90;999.90;;;3.30;99.90;;;;;;5037351;28;20365;-79
2021/12/31 01:08:36;;;;;;;1999.90;999.90;;;3.20;99.90;;;;;;5054452;28;20349;-80
2021/12/31 01:11:03;;;;;;;1999.90;999.90;;;3.40;99.90;;;;;;5054868;28;20032;-82
2021/12/31 01:13:49;;;;;;;1999.90;999.90;;;3.20;99.90;;;;;;5054761;28;20024;-81
2021/12/31 01:16:17;;;;;;;1999.90;999.90;;;3.20;99.90;;;;;;5054834;28;20025;-78
2021/12/31 01:21:14;;;;;;;1999.90;999.90;;;3.20;99.90;;;;;;5054868;28;20025;-77
2021/12/31 01:23:41;;;;;;;1999.90;999.90;;;3.10;99.90;;;;;;5054846;28;20075;-82
2021/12/31 01:26:07;;;;;;;1999.90;999.90;;;3.10;99.90;;;;;;5054345;28;20485;-80
2021/12/31 01:28:33;;;;;;;1999.90;999.90;;;3.10;99.90;;;;;;5054920;28;20491;-79
2021/12/31 01:30:58;;;;;;;1999.90;999.90;;;3.10;99.90;;;;;;5036708;28;20056;-82
2021/12/31 01:33:24;;;;;;;1999.90;999.90;;;3.20;99.90;;;;;;5054822;28;20032;-79
2021/12/31 01:35:50;;;;;;;1999.90;999.90;;;3.20;99.90;;;;;;5036417;28;20076;-80
2021/12/31 01:38:16;;;;;;;1999.90;999.90;;;3.10;99.90;;;;;;5054613;28;20040;-77
2021/12/31 01:40:42;;;;;;;1999.90;999.90;;;3.10;99.90;;;;;;5054467;28;20490;-82
2021/12/31 01:43:11;;;;;;;1999.90;999.90;;;3.00;99.90;;;;;;5054241;28;20033;-80
2021/12/31 01:45:43;;;;;;;1999.90;999.90;;;3.00;99.90;;;;;;5036250;28;20025;-78
2021/12/31 01:48:23;;;;;;;1999.90;999.90;;;2.90;99.90;;;;;;5036742;28;20025;-81
2021/12/31 01:50:49;;;;;;;1999.90;999.90;;;2.90;99.90;;;;;;5036242;28;20032;-78
2021/12/31 01:53:19;;;;;;;1999.90;999.90;;;2.90;99.90;;;;;;5053972;28;20503;-79
2021/12/31 01:55:45;;;;;;;1999.90;999.90;;;2.90;99.90;;;;;;5054256;28;20025;-80
2021/12/31 01:58:16;;;;;;;1999.90;999.90;;;2.80;99.90;;;;;;5053681;28;20087;-77
2021/12/31 02:00:42;;;;;;;1999.90;999.90;;;2.80;99.90;;;;;;5053729;28;20051;-83
2021/12/31 02:03:07;;;;;;;1999.90;999.90;;;2.80;99.90;;;;;;5035870;28;20638;-78
2021/12/31 02:05:33;;;;;;;1999.90;999.90;;;2.80;99.90;;;;;;5036007;28;20455;-79
2021/12/31 02:07:59;;;;;;;1999.90;999.90;;;2.80;99.90;;;;;;5053416;28;20025;-76
2021/12/31 02:10:25;;;;;;;1999.90;999.90;;;2.70;99.90;;;;;;5053582;28;20052;-80
2021/12/31 02:12:53;;;;;;;1999.90;999.90;;;2.70;99.90;;;;;;5053294;28;20032;-80
2021/12/31 02:15:20;;;;;;;1999.90;999.90;;;2.70;99.90;;;;;;5035655;28;20403;-77
2021/12/31 02:17:48;;;;;;;1999.90;999.90;;;2.80;99.90;;;;;;5053353;28;20472;-78
2021/12/31 02:20:14;;;;;;;1999.90;999.90;;;2.80;99.90;;;;;;5053024;28;20071;-84
2021/12/31 02:22:52;;;;;;;1999.90;999.90;;;2.80;99.90;;;;;;5053548;28;20033;-77
2021/12/31 02:25:19;;;;;;;1999.90;999.90;;;2.80;99.90;;;;;;5053374;28;20480;-77
2021/12/31 02:27:45;;;;;;;1999.90;999.90;;;2.70;99.90;;;;;;5053616;28;20396;-80
2021/12/31 02:30:11;;;;;;;1999.90;999.90;;;2.80;99.90;;;;;;5053850;28;20025;-81
2021/12/31 02:32:38;;;;;;;1999.90;999.90;;;2.70;99.90;;;;;;5053289;28;20029;-82
2021/12/31 02:35:06;;;;;;;1999.90;999.90;;;2.60;99.90;;;;;;5035640;28;20070;-81
2021/12/31 02:37:32;;;;;;;1999.90;999.90;;;2.60;99.90;;;;;;5052717;28;20103;-79
2021/12/31 02:40:00;;;;;;;1999.90;999.90;;;2.50;99.90;;;;;;5035301;28;20439;-78
2021/12/31 02:42:26;;;;;;;1999.90;999.90;;;2.50;99.90;;;;;;5035094;28;20431;-79
2021/12/31 02:44:54;;;;;;;1999.90;999.90;;;2.50;99.90;;;;;;5052956;28;20032;-77
2021/12/31 02:47:19;;;;;;;1999.90;999.90;;;2.50;99.90;;;;;;5035202;28;20033;-83
2021/12/31 02:49:47;;;;;;;1999.90;999.90;;;2.40;99.90;;;;;;5035153;28;20535;-81
2021/12/31 02:52:14;;;;;;;1999.90;999.90;;;2.30;99.90;;;;;;5052642;28;20605;-83
2021/12/31 02:54:44;;;;;;;1999.90;999.90;;;2.30;99.90;;;;;;5052441;28;20044;-80
2021/12/31 02:57:11;;;;;;;1999.90;999.90;;;2.30;99.90;;;;;;5034716;28;20121;-79
2021/12/31 02:59:38;;;;;;;1999.90;999.90;;;2.10;99.90;;;;;;5034857;28;20041;-78
2021/12/31 03:02:06;;;;;;;1999.90;999.90;;;2.10;99.90;;;;;;5052558;28;20427;-80
2021/12/31 03:04:35;;;;;;;1999.90;999.90;;;2.10;99.90;;;;;;5052660;28;20060;-79
2021/12/31 03:07:05;;;;;;;1999.90;999.90;;;2.10;99.90;;;;;;5052660;28;20025;-80
2021/12/31 03:09:32;;;;;;;1999.90;999.90;;;2.10;99.90;;;;;;5052768;28;20043;-76
2021/12/31 03:11:59;;;;;;;1999.90;999.90;;;2.20;99.90;;;;;;5053027;28;20090;-79
2021/12/31 03:14:26;;;;;;;1999.90;999.90;;;2.10;99.90;;;;;;5035054;28;20036;-81
2021/12/31 03:16:52;;;;;;;1999.90;999.90;;;2.20;99.90;;;;;;5035352;28;20439;-79
2021/12/31 03:19:20;;;;;;;1999.90;999.90;;;2.30;99.90;;;;;;5034715;28;20037;-82
2021/12/31 03:21:46;;;;;;;1999.90;999.90;;;2.30;99.90;;;;;;5034777;28;20021;-80
2021/12/31 03:24:11;;;;;;;1999.90;999.90;;;2.30;99.90;;;;;;5052974;28;20075;-81
2021/12/31 03:26:37;;;;;;;1999.90;999.90;;;2.30;99.90;;;;;;5052410;28;20132;-76
2021/12/31 03:29:03;;;;;;;1999.90;999.90;;;2.10;99.90;;;;;;5052718;28;20433;-79
2021/12/31 03:31:29;;;;;;;1999.90;999.90;;;2.10;99.90;;;;;;5054723;28;20052;-81
2021/12/31 03:33:55;;;;;;;1999.90;999.90;;;2.10;99.90;;;;;;5056297;28;20032;-83
2021/12/31 03:36:20;;;;;;;1999.90;999.90;;;2.10;99.90;;;;;;5056187;28;20108;-80
2021/12/31 03:38:46;;;;;;;1999.90;999.90;;;2.20;99.90;;;;;;5038324;28;20032;-80
2021/12/31 03:41:12;;;;;;;1999.90;999.90;;;2.20;99.90;;;;;;5056631;28;20024;-79
2021/12/31 03:43:38;;;;;;;1999.90;999.90;;;2.20;99.90;;;;;;5038434;28;20492;-79
2021/12/31 03:46:04;;;;;;;1999.90;999.90;;;2.20;99.90;;;;;;5056114;28;20032;-78
2021/12/31 03:48:30;;;;;;;1999.90;999.90;;;2.20;99.90;;;;;;5056306;28;20112;-79
2021/12/31 03:50:55;;;;;;;1999.90;999.90;;;2.10;99.90;;;;;;5038567;28;20021;-79
2021/12/31 03:53:21;;;;;;;1999.90;999.90;;;2.00;99.90;;;;;;5056096;28;20060;-81
2021/12/31 03:55:47;;;;;;;1999.90;999.90;;;2.00;99.90;;;;;;5056271;28;20025;-79
2021/12/31 03:58:13;;;;;;;1999.90;999.90;;;1.90;99.90;;;;;;5055756;28;20032;-79
2021/12/31 04:00:39;;;;;;;1999.90;999.90;;;2.00;99.90;;;;;;5056027;28;20607;-79
2021/12/31 04:03:10;;;;;;;1999.90;999.90;;;1.90;99.90;;;;;;5038065;28;20435;-79
2021/12/31 04:05:38;;;;;;;1999.90;999.90;;;1.90;99.90;;;;;;5055499;28;20021;-82
2021/12/31 04:08:05;;;;;;;1999.90;999.90;;;2.00;99.90;;;;;;5037529;28;20064;-78
2021/12/31 04:10:31;;;;;;;1999.90;999.90;;;1.90;99.90;;;;;;5055331;28;20028;-80
2021/12/31 04:12:57;;;;;;;1999.90;999.90;;;1.80;99.90;;;;;;5055358;28;20051;-79
2021/12/31 04:15:23;;;;;;;1999.90;999.90;;;1.80;99.90;;;;;;5055638;28;20361;-80
2021/12/31 04:17:49;;;;;;;1999.90;999.90;;;1.70;99.90;;;;;;5055416;28;20029;-78
2021/12/31 04:20:20;;;;;;;1999.90;999.90;;;1.70;99.90;;;;;;5055418;28;20091;-78
2021/12/31 04:22:54;;;;;;;1999.90;999.90;;;1.70;99.90;;;;;;5037627;28;20055;-77
2021/12/31 04:25:21;;;;;;;1999.90;999.90;;;1.70;99.90;;;;;;5054952;28;20060;-79
2021/12/31 04:27:47;;;;;;;1999.90;999.90;;;1.60;99.90;;;;;;5055179;28;20096;-78
2021/12/31 04:30:13;;;;;;;1999.90;999.90;;;1.60;99.90;;;;;;5055343;28;20040;-81
2021/12/31 04:32:42;;;;;;;1999.90;999.90;;;1.60;99.90;;;;;;5037298;28;20377;-80
2021/12/31 04:35:11;;;;;;;1999.90;999.90;;;1.60;99.90;;;;;;5037450;28;20074;-80
2021/12/31 04:37:39;;;;;;;1999.90;999.90;;;1.60;99.90;;;;;;5055181;28;20109;-78
2021/12/31 04:40:07;;;;;;;1999.90;999.90;;;1.60;99.90;;;;;;5037412;28;20388;-78
2021/12/31 04:42:32;;;;;;;1999.90;999.90;;;1.60;99.90;;;;;;5054915;28;20460;-78
2021/12/31 04:44:58;;;;;;;1999.90;999.90;;;1.50;99.90;;;;;;5055079;28;20082;-79
2021/12/31 04:47:24;;;;;;;1999.90;999.90;;;1.50;99.90;;;;;;5055155;28;20472;-79
2021/12/31 04:49:49;;;;;;;1999.90;999.90;;;1.40;99.90;;;;;;5036910;28;20037;-80
2021/12/31 04:52:16;;;;;;;1999.90;999.90;;;1.30;99.90;;;;;;5055082;28;20123;-78
2021/12/31 04:54:41;;;;;;;1999.90;999.90;;;1.20;99.90;;;;;;5054780;28;20074;-78
2021/12/31 04:57:07;;;;;;;1999.90;999.90;;;1.20;99.90;;;;;;5036660;28;20419;-80
2021/12/31 04:59:34;;;;;;;1999.90;999.90;;;1.20;99.90;;;;;;5054742;28;20064;-81
2021/12/31 05:01:59;;;;;;;1999.90;999.90;;;1.10;99.90;;;;;;5054516;28;20457;-79
2021/12/31 05:04:25;;;;;;;1999.90;999.90;;;1.00;99.90;;;;;;5054919;28;20029;-78
2021/12/31 05:06:51;;;;;;;1999.90;999.90;;;1.00;99.90;;;;;;5054592;28;20461;-80
2021/12/31 05:09:17;;;;;;;1999.90;999.90;;;1.00;99.90;;;;;;5054366;28;20017;-78
2021/12/31 05:11:43;;;;;;;1999.90;999.90;;;1.00;99.90;;;;;;5054445;28;20028;-78
2021/12/31 05:14:09;;;;;;;1999.90;999.90;;;1.10;99.90;;;;;;5054500;28;20029;-77
2021/12/31 05:16:35;;;;;;;1999.90;999.90;;;1.10;99.90;;;;;;5036041;28;20021;-78
2021/12/31 05:19:02;;;;;;;1999.90;999.90;;;1.20;99.90;;;;;;5036294;28;20033;-78
2021/12/31 05:21:29;;;;;;;1999.90;999.90;;;1.20;99.90;;;;;;5054026;28;20021;-77
2021/12/31 05:23:54;;;;;;;1999.90;999.90;;;1.20;99.90;;;;;;5054073;28;20021;-78
2021/12/31 05:26:20;;;;;;;1999.90;999.90;;;1.30;99.90;;;;;;5036375;28;20550;-81
2021/12/31 05:28:45;;;;;;;1999.90;999.90;;;1.30;99.90;;;;;;5053888;28;20099;-79
2021/12/31 05:31:11;;;;;;;1999.90;999.90;;;1.20;99.90;;;;;;5053673;28;20108;-80
2021/12/31 05:33:37;;;;;;;1999.90;999.90;;;1.30;99.90;;;;;;5036066;28;20114;-77
2021/12/31 05:36:03;;;;;;;1999.90;999.90;;;1.30;99.90;;;;;;5053521;28;20025;-76
2021/12/31 05:38:28;;;;;;;1999.90;999.90;;;1.20;99.90;;;;;;5035653;28;20045;-79
2021/12/31 05:40:54;;;;;;;1999.90;999.90;;;1.20;99.90;;;;;;5035925;28;20524;-80
2021/12/31 05:43:20;;;;;;;1999.90;999.90;;;1.20;99.90;;;;;;5053679;28;20484;-77
2021/12/31 05:45:45;;;;;;;1999.90;999.90;;;1.20;99.90;;;;;;5053613;28;20020;-78
2021/12/31 05:48:11;;;;;;;1999.90;999.90;;;1.10;99.90;;;;;;5035552;28;20025;-79
2021/12/31 05:50:37;;;;;;;1999.90;999.90;;;1.00;99.90;;;;;;5053978;28;20086;-81
2021/12/31 05:53:02;;;;;;;1999.90;999.90;;;1.00;99.90;;;;;;5053614;28;20013;-80
2021/12/31 05:55:28;;;;;;;1999.90;999.90;;;1.00;99.90;;;;;;5035034;28;20033;-79
2021/12/31 05:57:55;;;;;;;1999.90;999.90;;;0.90;99.90;;;;;;5053282;28;20053;-80
2021/12/31 06:00:22;;;;;;;1999.90;999.90;;;0.90;99.90;;;;;;5054959;28;20514;-79
2021/12/31 06:02:47;;;;;;;1999.90;999.90;;;0.90;99.90;;;;;;5054417;28;20108;-78
2021/12/31 06:05:13;;;;;;;1999.90;999.90;;;1.20;99.90;;;;;;5053697;28;20099;-76
2021/12/31 06:07:39;;;;;;;1999.90;999.90;;;1.20;99.90;;;;;;5054296;28;20488;-76
2021/12/31 06:10:05;;;;;;;1999.90;999.90;;;1.10;99.90;;;;;;5054506;28;20047;-80
2021/12/31 06:12:33;;;;;;;1999.90;999.90;;;1.00;99.90;;;;;;5038633;28;20022;-76
2021/12/31 06:15:02;;;;;;;1999.90;999.90;;;1.00;99.90;;;;;;5036264;28;20025;-77
2021/12/31 06:17:29;;;;;;;1999.90;999.90;;;1.00;99.90;;;;;;5036108;28;20463;-81
2021/12/31 06:19:54;;;;;;;1999.90;999.90;;;0.90;99.90;;;;;;5036274;28;20041;-77
2021/12/31 06:22:21;;;;;;;1999.90;999.90;;;0.90;99.90;;;;;;5053849;28;20051;-78
2021/12/31 06:24:47;;;;;;;1999.90;999.90;;;0.90;99.90;;;;;;5053669;28;20056;-82
2021/12/31 06:27:13;;;;;;;1999.90;999.90;;;0.80;99.90;;;;;;5054173;28;20112;-80
2021/12/31 06:29:38;;;;;;;1999.90;999.90;;;0.80;99.90;;;;;;5035870;28;20032;-78
2021/12/31 06:32:05;;;;;;;1999.90;999.90;;;0.80;99.90;;;;;;5035414;28;20029;-79
2021/12/31 06:34:30;;;;;;;1999.90;999.90;;;0.80;99.90;;;;;;5053801;28;20028;-77
2021/12/31 06:36:56;;;;;;;1999.90;999.90;;;0.80;99.90;;;;;;5054001;28;20746;-76
2021/12/31 06:39:22;;;;;;;1999.90;999.90;;;0.80;99.90;;;;;;5054260;28;20037;-79
2021/12/31 06:41:48;;;;;;;1999.90;999.90;;;0.80;99.90;;;;;;5053838;28;20025;-81
2021/12/31 06:44:14;;;;;;;1999.90;999.90;;;0.70;99.90;;;;;;5053981;28;20091;-77
2021/12/31 06:46:40;;;;;;;1999.90;999.90;;;0.70;99.90;;;;;;5036448;28;20170;-80
2021/12/31 06:49:05;;;;;;;1999.90;999.90;;;0.70;99.90;;;;;;5054614;28;20029;-82
2021/12/31 06:51:31;;;;;;;1999.90;999.90;;;0.80;99.90;;;;;;5054415;28;20039;-80
2021/12/31 06:53:57;;;;;;;1999.90;999.90;;;0.80;99.90;;;;;;5055123;28;20059;-80
2021/12/31 06:56:22;;;;;;;1999.90;999.90;;;0.70;99.90;;;;;;5054710;28;20045;-85
2021/12/31 06:58:48;;;;;;;1999.90;999.90;;;0.70;99.90;;;;;;5054214;28;20045;-80
2021/12/31 07:01:14;;;;;;;1999.90;999.90;;;0.80;99.90;;;;;;5054008;28;20025;-75
2021/12/31 07:03:39;;;;;;;1999.90;999.90;;;0.80;99.90;;;;;;5053457;28;20509;-79
2021/12/31 07:06:05;;;;;;;1999.90;999.90;;;0.80;99.90;;;;;;5054934;28;20021;-79
2021/12/31 07:08:31;;;;;;;1999.90;999.90;;;0.70;99.90;;;;;;5058582;28;20418;-78
2021/12/31 07:10:56;;;;;;;1999.90;999.90;;;0.80;99.90;;;;;;5040115;28;20031;-79
2021/12/31 07:13:22;;;;;;;1999.90;999.90;;;0.80;99.90;;;;;;5040221;28;20029;-82
2021/12/31 07:15:50;;;;;;;1999.90;999.90;;;0.80;99.90;;;;;;5056658;28;20033;-79
2021/12/31 07:18:18;;;;;;;1999.90;999.90;;;0.90;99.90;;;;;;5038750;28;20085;-76
2021/12/31 07:20:44;;;;;;;1999.90;999.90;;;0.90;99.90;;;;;;5056681;28;20035;-78
2021/12/31 07:23:12;;;;;;;1999.90;999.90;;;0.90;99.90;;;;;;5038895;28;20108;-82
2021/12/31 07:25:39;;;;;;;1999.90;999.90;;;0.90;99.90;;;;;;5057167;28;20234;-82
2021/12/31 07:28:06;;;;;;;1999.90;999.90;;;1.00;99.90;;;;;;5039570;28;20491;-80
2021/12/31 07:30:31;;;;;;;1999.90;999.90;;;1.00;99.90;;;;;;5056817;28;20482;-80
2021/12/31 07:32:57;;;;;;;1999.90;999.90;;;1.00;99.90;;;;;;5038767;28;20040;-79
2021/12/31 07:35:24;;;;;;;1999.90;999.90;;;1.00;99.90;;;;;;5056762;28;20084;-80
2021/12/31 07:37:56;;;;;;;1999.90;999.90;;;1.10;99.90;;;;;;5039577;28;20091;-83
2021/12/31 07:40:38;;;;;;;1999.90;999.90;;;1.20;99.90;;;;;;5057800;28;20033;-81
2021/12/31 07:43:08;;;;;;;1999.90;999.90;;;1.20;99.90;;;;;;5038260;28;20079;-80
2021/12/31 07:45:34;;;;;;;1999.90;999.90;;;1.20;99.90;;;;;;5056976;28;20115;-78
2021/12/31 07:48:00;;;;;;;1999.90;999.90;;;1.20;99.90;;;;;;5040095;28;20124;-85
2021/12/31 07:50:26;;;;;;;1999.90;999.90;;;1.30;99.90;;;;;;5055667;28;20119;-79
2021/12/31 07:52:51;;;;;;;1999.90;999.90;;;1.20;99.90;;;;;;5055531;28;20436;-81
2021/12/31 07:55:17;;;;;;;1999.90;999.90;;;1.20;99.90;;;;;;5037555;28;20033;-81
2021/12/31 07:57:43;;;;;;;1999.90;999.90;;;1.40;99.90;;;;;;5037832;28;20025;-80
2021/12/31 08:00:09;;;;;;;1999.90;999.90;;;1.50;99.90;;;;;;5056990;28;20029;-83
2021/12/31 08:02:34;;;;;;;1999.90;999.90;;;1.50;99.90;;;;;;5039770;28;20469;-81
2021/12/31 08:05:00;;;;;;;1999.90;999.90;;;1.60;99.90;;;;;;5054296;28;20029;-82
2021/12/31 08:07:26;;;;;;;1999.90;999.90;;;1.60;99.90;;;;;;5056118;28;20029;-83
2021/12/31 08:09:52;;;;;;;1999.90;999.90;;;1.70;99.90;;;;;;5056219;28;20140;-81
2021/12/31 08:12:18;;;;;;;1999.90;999.90;;;1.80;99.90;;;;;;5055786;28;20032;-81
2021/12/31 08:14:43;;;;;;;1999.90;999.90;;;1.90;99.90;;;;;;5056346;28;20032;-82
2021/12/31 08:17:09;;;;;;;1999.90;999.90;;;2.10;99.90;;;;;;5055106;28;20025;-84
2021/12/31 08:19:34;;;;;;;1999.90;999.90;;;2.10;99.90;;;;;;5055533;28;20033;-80
2021/12/31 08:22:00;;;;;;;1999.90;999.90;;;2.10;99.90;;;;;;5055105;28;20048;-83
2021/12/31 08:24:26;;;;;;;1999.90;999.90;;;2.20;99.90;;;;;;5054828;28;20052;-83
2021/12/31 08:26:51;;;;;;;1999.90;999.90;;;2.30;99.90;;;;;;5055320;28;20021;-79
2021/12/31 08:29:18;;;;;;;1999.90;999.90;;;2.40;99.90;;;;;;5055451;28;20354;-80
2021/12/31 08:31:44;;;;;;;1999.90;999.90;;;2.50;99.90;;;;;;5055060;28;20025;-82
2021/12/31 08:34:10;;;;;;;1999.90;999.90;;;3.80;99.90;;;;;;5055170;28;20029;-82
2021/12/31 08:36:36;;;;;;;1999.90;999.90;;;4.10;99.90;;;;;;5057309;28;20025;-81
2021/12/31 08:39:10;;;;;;;1999.90;999.90;;;3.90;99.90;;;;;;5054957;28;20504;-86
2021/12/31 08:41:37;;;;;;;1999.90;999.90;;;3.70;99.90;;;;;;5055333;28;20017;-82
2021/12/31 08:44:04;;;;;;;1999.90;999.90;;;3.60;99.90;;;;;;5055222;28;20028;-81
2021/12/31 08:46:31;;;;;;;1999.90;999.90;;;3.50;99.90;;;;;;5055412;28;20025;-83
2021/12/31 08:48:57;;;;;;;1999.90;999.90;;;3.40;99.90;;;;;;5054170;28;20025;-79
2021/12/31 08:51:24;;;;;;;1999.90;999.90;;;3.50;99.90;;;;;;5054542;28;20107;-81
2021/12/31 08:53:50;;;;;;;1999.90;999.90;;;3.40;99.90;;;;;;5055288;28;20083;-80
2021/12/31 08:56:16;;;;;;;1999.90;999.90;;;3.40;99.90;;;;;;5054445;28;20025;-81
2021/12/31 08:58:41;;;;;;;1999.90;999.90;;;3.60;99.90;;;;;;5054114;28;20485;-78
2021/12/31 09:01:07;;;;;;;1999.90;999.90;;;3.60;99.90;;;;;;5054188;28;20053;-78
2021/12/31 09:03:33;;;;;;;1999.90;999.90;;;3.60;99.90;;;;;;5054394;28;20079;-82
2021/12/31 09:05:58;;;;;;;1999.90;999.90;;;5.20;99.90;;;;;;5054470;28;20025;-83
2021/12/31 09:08:24;;;;;;;1999.90;999.90;;;5.50;99.90;;;;;;5055946;28;20025;-85
2021/12/31 09:10:50;;;;;;;1999.90;999.90;;;5.90;99.90;;;;;;5054914;28;20120;-79
2021/12/31 09:13:16;;;;;;;1999.90;999.90;;;6.10;99.90;;;;;;5054836;28;20055;-82
2021/12/31 09:15:42;;;;;;;1999.90;999.90;;;6.10;99.90;;;;;;5054798;28;20039;-82
2021/12/31 09:18:07;;;;;;;1999.90;999.90;;;6.50;99.90;;;;;;5054628;28;20045;-87
2021/12/31 09:20:33;;;;;;;1999.90;999.90;;;6.50;99.90;;;;;;5054310;28;20028;-82
2021/12/31 09:22:59;;;;;;;1999.90;999.90;;;6.50;99.90;;;;;;5054417;28;20039;-83
2021/12/31 09:25:24;;;;;;;1999.90;999.90;;;6.70;99.90;;;;;;5053922;28;20132;-81
2021/12/31 09:27:50;;;;;;;1999.90;999.90;;;6.60;99.90;;;;;;5054701;28;20025;-82
2021/12/31 09:30:16;;;;;;;1999.90;999.90;;;6.70;99.90;;;;;;5054633;28;20021;-84
2021/12/31 09:32:42;;;;;;;1999.90;999.90;;;6.60;99.90;;;;;;5055331;28;20029;-81
2021/12/31 09:35:08;;;;;;;1999.90;999.90;;;6.90;99.90;;;;;;5055207;28;20063;-83
2021/12/31 09:37:34;;;;;;;1999.90;999.90;;;7.00;99.90;;;;;;5054614;28;20021;-83
2021/12/31 09:40:02;;;;;;;1999.90;999.90;;;7.00;99.90;;;;;;5055123;28;20037;-86
2021/12/31 09:42:28;;;;;;;1999.90;999.90;;;6.90;99.90;;;;;;5054393;28;20460;-83
2021/12/31 09:44:54;;;;;;;1999.90;999.90;;;7.10;99.90;;;;;;5054308;28;20111;-83
2021/12/31 09:47:20;;;;;;;1999.90;999.90;;;7.20;99.90;;;;;;5054291;28;20358;-86
2021/12/31 09:49:48;;;;;;;1999.90;999.90;;;7.30;99.90;;;;;;5054621;28;20029;-85
2021/12/31 09:52:15;;;;;;;1999.90;999.90;;;7.50;99.90;;;;;;5054363;28;20374;-84
2021/12/31 09:54:46;;;;;;;1999.90;999.90;;;7.50;99.90;;;;;;5053853;28;20060;-81
2021/12/31 09:57:20;;;;;;;1999.90;999.90;;;7.50;99.90;;;;;;5053551;28;20027;-84
2021/12/31 09:59:47;;;;;;;1999.90;999.90;;;7.50;99.90;;;;;;5055129;28;20115;-85
2021/12/31 10:02:13;;;;;;;1999.90;999.90;;;;;;;;;;5054918;28;20039;-85
2021/12/31 10:04:57;;;;;;;1999.90;999.90;;;7.70;99.90;;;;;;5054521;28;20031;-79
2021/12/31 10:07:24;;;;;;;1999.90;999.90;;;7.70;99.90;;;;;;5052732;28;20476;-79
2021/12/31 10:10:11;;;;;;;1999.90;999.90;;;8.00;99.90;;;;;;5053164;28;20025;-83
2021/12/31 10:12:56;;;;;;;1999.90;999.90;;;8.20;99.90;;;;;;5053428;28;20032;-81
2021/12/31 10:15:24;;;;;;;1999.90;999.90;;;8.30;99.90;;;;;;5053545;28;20036;-81
2021/12/31 10:17:50;;;;;;;1999.90;999.90;;;8.30;99.90;;;;;;5052310;28;20618;-81
2021/12/31 10:20:17;;;;;;;1999.90;999.90;;;8.40;99.90;;;;;;5051978;28;20055;-79
2021/12/31 10:22:45;;;;;;;1999.90;999.90;;;8.40;99.90;;;;;;5051361;28;20027;-79
2021/12/31 10:25:25;;;;;;;1999.90;999.90;;;8.40;99.90;;;;;;5052481;28;20075;-81
2021/12/31 10:28:06;;;;;;;1999.90;999.90;;;8.50;99.90;;;;;;5051918;28;20036;-79
2021/12/31 10:30:32;;;;;;;1999.90;999.90;;;8.70;99.90;;;;;;5052821;28;20040;-82
2021/12/31 10:32:58;;;;;;;1999.90;999.90;;;8.70;99.90;;;;;;5052401;28;20034;-78
2021/12/31 10:35:23;;;;;;;1999.90;999.90;;;8.70;99.90;;;;;;5052415;28;20052;-81
2021/12/31 10:37:58;;;;;;;1999.90;999.90;;;8.80;99.90;;;;;;5051096;28;20481;-79
2021/12/31 10:40:30;;;;;;;1999.90;999.90;;;8.80;99.90;;;;;;5052102;28;20816;-80
2021/12/31 10:43:17;;;;;;;1999.90;999.90;;;8.90;99.90;;;;;;5050872;28;20053;-77
2021/12/31 10:46:00;;;;;;;1999.90;999.90;;;8.90;99.90;;;;;;5050933;28;20029;-80
2021/12/31 10:48:44;;;;;;;1999.90;999.90;;;8.90;99.90;;;;;;5052219;28;20108;-79
2021/12/31 10:51:13;;;;;;;1999.90;999.90;;;9.00;99.90;;;;;;5051557;28;20033;-79
2021/12/31 10:53:39;;;;;;;1999.90;999.90;;;9.10;99.90;;;;;;5051295;28;20032;-79
2021/12/31 10:56:06;;;;;;;1999.90;999.90;;;9.20;99.90;;;;;;5050467;28;20607;-80
2021/12/31 10:58:32;;;;;;;1999.90;999.90;;;9.30;99.90;;;;;;5050559;28;20131;-81
2021/12/31 11:00:59;;;;;;;1999.90;999.90;;;9.30;99.90;;;;;;5052099;28;20151;-80
2021/12/31 11:03:25;;;;;;;1999.90;999.90;;;9.40;99.90;;;;;;5052027;28;20052;-79
2021/12/31 11:05:53;;;;;;;1999.90;999.90;;;9.50;99.90;;;;;;5050802;28;20118;-81
2021/12/31 11:08:19;;;;;;;1999.90;999.90;;;9.50;99.90;;;;;;5051990;28;20027;-78
2021/12/31 11:10:45;;;;;;;1999.90;999.90;;;9.60;99.90;;;;;;5050779;28;20056;-79
2021/12/31 11:13:14;;;;;;;1999.90;999.90;;;9.70;99.90;;;;;;5050576;28;20138;-78
2021/12/31 11:15:44;;;;;;;1999.90;999.90;;;9.70;99.90;;;;;;5050523;28;20111;-79
2021/12/31 11:18:12;;;;;;;1999.90;999.90;;;9.70;99.90;;;;;;5050544;28;20025;-78
2021/12/31 11:20:39;;;;;;;1999.90;999.90;;;9.80;99.90;;;;;;5050671;28;20386;-78
2021/12/31 11:23:05;;;;;;;1999.90;999.90;;;9.80;99.90;;;;;;5051623;28;20491;-78
2021/12/31 11:25:31;;;;;;;1999.90;999.90;;;9.90;99.90;;;;;;5050427;28;20069;-81
2021/12/31 11:27:58;;;;;;;1999.90;999.90;;;10.00;99.90;;;;;;5051387;28;20030;-79
2021/12/31 11:30:40;;;;;;;1999.90;999.90;;;10.10;99.90;;;;;;5051992;28;20025;-81
2021/12/31 11:33:09;;;;;;;1999.90;999.90;;;10.10;99.90;;;;;;5051685;28;20480;-81
2021/12/31 11:35:36;;;;;;;1999.90;999.90;;;10.20;99.90;;;;;;5052098;28;20041;-78
2021/12/31 11:38:04;;;;;;;1999.90;999.90;;;10.30;99.90;;;;;;5050558;28;20025;-81
2021/12/31 11:40:35;;;;;;;1999.90;999.90;;;10.40;99.90;;;;;;5052382;28;20477;-82
2021/12/31 11:43:23;;;;;;;1999.90;999.90;;;10.50;99.90;;;;;;5052170;28;20029;-82
2021/12/31 11:46:19;;;;;;;1999.90;999.90;;;10.60;99.90;;;;;;5051175;28;20111;-81
2021/12/31 11:48:45;;;;;;;;;;;10.60;99.90;;;;;;5051558;28;20086;-79
2021/12/31 11:51:23;;;;;;;1999.90;999.90;;;10.70;99.90;;;;;;5052006;28;19909;-80
2021/12/31 11:53:58;;;;;;;1999.90;999.90;;;10.80;99.90;;;;;;5054523;28;20032;-80
2021/12/31 11:56:35;;;;;;;1999.90;999.90;;;10.80;99.90;;;;;;5055821;28;20053;-79
2021/12/31 11:59:07;;;;;;;1999.90;999.90;;;10.90;99.90;;;;;;5055425;28;20029;-79
2021/12/31 12:01:52;;;;;;;1999.90;999.90;;;10.90;99.90;;;;;;5054301;28;20144;-79
2021/12/31 12:04:24;;;;;;;1999.90;999.90;;;10.90;99.90;;;;;;5055222;28;20469;-80
2021/12/31 12:07:02;;;;;;;1999.90;999.90;;;11.00;99.90;;;;;;5054000;28;20040;-80
2021/12/31 12:09:37;;;;;;;1999.90;999.90;;;11.00;99.90;;;;;;5054422;28;20131;-80
2021/12/31 12:12:07;;;;;;;1999.90;999.90;;;11.10;99.90;;;;;;5054074;28;20066;-81
2021/12/31 12:14:47;;;;;;;1999.90;999.90;;;11.20;99.90;;;;;;5055142;28;20032;-80